sensor_id;sensor_type;location;lat;lon;timestamp;temperature;humidity
10431;DHT22;5262;59.958;17.726;2023-06-04T00:01:21;11.00;99.90
10431;DHT22;5262;59.958;17.726;2023-06-04T00:03:46;10.90;99.90
10431;DHT22;5262;59.958;17.726;2023-06-04T00:06:12;10.90;99.90
10431;DHT22;5262;59.958;17.726;2023-06-04T00:08:38;10.80;99.90
10431;DHT22;5262;59.958;17.726;2023-06-04T00:11:03;10.80;99.90
10431;DHT22;5262;59.958;17.726;2023-06-04T00:13:29;10.80;99.90
10431;DHT22;5262;59.958;17.726;2023-06-04T00:15:55;10.80;99.90
10431;DHT22;5262;59.958;17.726;2023-06-04T00:18:20;10.80;99.90
10431;DHT22;5262;59.958;17.726;2023-06-04T00:20:46;10.70;99.90
10431;DHT22;5262;59.958;17.726;2023-06-04T00:23:11;10.60;99.90
10431;DHT22;5262;59.958;17.726;2023-06-04T00:25:37;10.50;99.90
10431;DHT22;5262;59.958;17.726;2023-06-04T00:28:03;10.40;99.90
10431;DHT22;5262;59.958;17.726;2023-06-04T00:30:29;10.30;99.90
10431;DHT22;5262;59.958;17.726;2023-06-04T00:32:54;10.20;99.90
10431;DHT22;5262;59.958;17.726;2023-06-04T00:35:20;10.10;99.90
10431;DHT22;5262;59.958;17.726;2023-06-04T00:37:46;10.10;99.90
10431;DHT22;5262;59.958;17.726;2023-06-04T00:40:12;10.10;99.90
10431;DHT22;5262;59.958;17.726;2023-06-04T00:42:37;10.10;99.90
10431;DHT22;5262;59.958;17.726;2023-06-04T00:45:04;10.00;99.90
10431;DHT22;5262;59.958;17.726;2023-06-04T00:47:33;9.90;99.90
10431;DHT22;5262;59.958;17.726;2023-06-04T00:49:59;9.80;99.90
10431;DHT22;5262;59.958;17.726;2023-06-04T00:52:25;9.60;99.90
10431;DHT22;5262;59.958;17.726;2023-06-04T00:54:52;9.60;99.90
10431;DHT22;5262;59.958;17.726;2023-06-04T00:57:22;9.70;99.90
10431;DHT22;5262;59.958;17.726;2023-06-04T00:59:48;9.60;99.90
10431;DHT22;5262;59.958;17.726;2023-06-04T01:02:21;9.50;99.90
10431;DHT22;5262;59.958;17.726;2023-06-04T01:05:20;9.40;99.90
10431;DHT22;5262;59.958;17.726;2023-06-04T01:07:47;9.10;99.90
10431;DHT22;5262;59.958;17.726;2023-06-04T01:10:14;9.00;99.90
10431;DHT22;5262;59.958;17.726;2023-06-04T01:12:43;8.90;99.90
10431;DHT22;5262;59.958;17.726;2023-06-04T01:15:10;8.80;99.90
10431;DHT22;5262;59.958;17.726;2023-06-04T01:17:40;8.80;99.90
10431;DHT22;5262;59.958;17.726;2023-06-04T01:25:41;8.80;99.90
10431;DHT22;5262;59.958;17.726;2023-06-04T01:28:12;8.60;99.90
10431;DHT22;5262;59.958;17.726;2023-06-04T01:30:40;8.50;99.90
10431;DHT22;5262;59.958;17.726;2023-06-04T01:33:10;8.40;99.90
10431;DHT22;5262;59.958;17.726;2023-06-04T01:35:36;8.30;99.90
10431;DHT22;5262;59.958;17.726;2023-06-04T01:38:02;8.20;99.90
10431;DHT22;5262;59.958;17.726;2023-06-04T01:40:28;8.20;99.90
10431;DHT22;5262;59.958;17.726;2023-06-04T01:42:54;8.20;99.90
10431;DHT22;5262;59.958;17.726;2023-06-04T01:45:26;8.20;99.90
10431;DHT22;5262;59.958;17.726;2023-06-04T01:47:53;8.00;99.90
10431;DHT22;5262;59.958;17.726;2023-06-04T01:50:18;7.90;99.90
10431;DHT22;5262;59.958;17.726;2023-06-04T01:52:44;7.80;99.90
10431;DHT22;5262;59.958;17.726;2023-06-04T01:55:12;7.70;99.90
10431;DHT22;5262;59.958;17.726;2023-06-04T01:57:40;7.60;99.90
10431;DHT22;5262;59.958;17.726;2023-06-04T02:00:07;7.60;99.90
10431;DHT22;5262;59.958;17.726;2023-06-04T02:02:35;7.50;99.90
10431;DHT22;5262;59.958;17.726;2023-06-04T02:05:01;7.50;99.90
10431;DHT22;5262;59.958;17.726;2023-06-04T02:07:27;7.40;99.90
10431;DHT22;5262;59.958;17.726;2023-06-04T02:09:53;7.40;99.90
10431;DHT22;5262;59.958;17.726;2023-06-04T02:12:19;7.30;99.90
10431;DHT22;5262;59.958;17.726;2023-06-04T02:14:44;7.30;99.90
10431;DHT22;5262;59.958;17.726;2023-06-04T02:17:13;7.20;99.90
10431;DHT22;5262;59.958;17.726;2023-06-04T02:19:40;7.10;99.90
10431;DHT22;5262;59.958;17.726;2023-06-04T02:22:11;7.20;99.90
10431;DHT22;5262;59.958;17.726;2023-06-04T02:24:37;7.30;99.90
10431;DHT22;5262;59.958;17.726;2023-06-04T02:27:05;7.30;99.90
10431;DHT22;5262;59.958;17.726;2023-06-04T02:29:31;7.40;99.90
10431;DHT22;5262;59.958;17.726;2023-06-04T02:31:57;7.30;99.90
10431;DHT22;5262;59.958;17.726;2023-06-04T02:34:23;7.30;99.90
10431;DHT22;5262;59.958;17.726;2023-06-04T02:36:49;7.20;99.90
10431;DHT22;5262;59.958;17.726;2023-06-04T02:39:16;7.20;99.90
10431;DHT22;5262;59.958;17.726;2023-06-04T02:41:42;7.20;99.90
10431;DHT22;5262;59.958;17.726;2023-06-04T02:44:08;7.20;99.90
10431;DHT22;5262;59.958;17.726;2023-06-04T02:46:33;7.20;99.90
10431;DHT22;5262;59.958;17.726;2023-06-04T02:48:59;7.20;99.90
10431;DHT22;5262;59.958;17.726;2023-06-04T02:51:25;7.20;99.90
10431;DHT22;5262;59.958;17.726;2023-06-04T02:53:50;7.20;99.90
10431;DHT22;5262;59.958;17.726;2023-06-04T02:56:17;7.20;99.90
10431;DHT22;5262;59.958;17.726;2023-06-04T02:58:50;7.20;99.90
10431;DHT22;5262;59.958;17.726;2023-06-04T03:01:20;7.10;99.90
10431;DHT22;5262;59.958;17.726;2023-06-04T03:03:48;7.10;99.90
10431;DHT22;5262;59.958;17.726;2023-06-04T03:06:15;7.20;99.90
10431;DHT22;5262;59.958;17.726;2023-06-04T03:08:42;7.10;99.90
10431;DHT22;5262;59.958;17.726;2023-06-04T03:11:08;7.20;99.90
10431;DHT22;5262;59.958;17.726;2023-06-04T03:13:33;7.20;99.90
10431;DHT22;5262;59.958;17.726;2023-06-04T03:15:59;7.20;99.90
10431;DHT22;5262;59.958;17.726;2023-06-04T03:18:28;7.20;99.90
10431;DHT22;5262;59.958;17.726;2023-06-04T03:20:54;7.20;99.90
10431;DHT22;5262;59.958;17.726;2023-06-04T03:23:21;7.20;99.90
10431;DHT22;5262;59.958;17.726;2023-06-04T03:25:47;7.20;99.90
10431;DHT22;5262;59.958;17.726;2023-06-04T03:28:12;7.20;99.90
10431;DHT22;5262;59.958;17.726;2023-06-04T03:30:39;7.20;99.90
10431;DHT22;5262;59.958;17.726;2023-06-04T03:33:05;7.20;99.90
10431;DHT22;5262;59.958;17.726;2023-06-04T03:35:31;7.20;99.90
10431;DHT22;5262;59.958;17.726;2023-06-04T03:37:56;7.20;99.90
10431;DHT22;5262;59.958;17.726;2023-06-04T03:40:22;7.30;99.90
10431;DHT22;5262;59.958;17.726;2023-06-04T03:42:49;7.30;99.90
10431;DHT22;5262;59.958;17.726;2023-06-04T03:45:14;7.30;99.90
10431;DHT22;5262;59.958;17.726;2023-06-04T03:47:40;7.30;99.90
10431;DHT22;5262;59.958;17.726;2023-06-04T03:50:06;7.30;99.90
10431;DHT22;5262;59.958;17.726;2023-06-04T03:52:32;7.30;99.90
10431;DHT22;5262;59.958;17.726;2023-06-04T03:54:58;7.40;99.90
10431;DHT22;5262;59.958;17.726;2023-06-04T03:57:24;7.40;99.90
10431;DHT22;5262;59.958;17.726;2023-06-04T03:59:49;7.40;99.90
10431;DHT22;5262;59.958;17.726;2023-06-04T04:02:15;7.40;99.90
10431;DHT22;5262;59.958;17.726;2023-06-04T04:04:43;7.50;99.90
10431;DHT22;5262;59.958;17.726;2023-06-04T04:07:09;7.50;99.90
10431;DHT22;5262;59.958;17.726;2023-06-04T04:09:36;7.50;99.90
10431;DHT22;5262;59.958;17.726;2023-06-04T04:12:03;7.50;99.90
10431;DHT22;5262;59.958;17.726;2023-06-04T04:14:28;7.60;99.90
10431;DHT22;5262;59.958;17.726;2023-06-04T04:16:54;7.70;99.90
10431;DHT22;5262;59.958;17.726;2023-06-04T04:19:20;7.70;99.90
10431;DHT22;5262;59.958;17.726;2023-06-04T04:21:46;7.70;99.90
10431;DHT22;5262;59.958;17.726;2023-06-04T04:26:48;7.80;99.90
10431;DHT22;5262;59.958;17.726;2023-06-04T04:29:21;7.90;99.90
10431;DHT22;5262;59.958;17.726;2023-06-04T04:31:53;7.90;99.90
10431;DHT22;5262;59.958;17.726;2023-06-04T04:34:26;7.90;99.90
10431;DHT22;5262;59.958;17.726;2023-06-04T04:36:52;7.90;99.90
10431;DHT22;5262;59.958;17.726;2023-06-04T04:39:23;8.00;99.90
10431;DHT22;5262;59.958;17.726;2023-06-04T04:41:49;8.00;99.90
10431;DHT22;5262;59.958;17.726;2023-06-04T04:44:15;8.10;99.90
10431;DHT22;5262;59.958;17.726;2023-06-04T04:46:41;8.00;99.90
10431;DHT22;5262;59.958;17.726;2023-06-04T04:49:07;8.10;99.90
10431;DHT22;5262;59.958;17.726;2023-06-04T04:51:32;8.20;99.90
10431;DHT22;5262;59.958;17.726;2023-06-04T04:53:58;8.20;99.90
10431;DHT22;5262;59.958;17.726;2023-06-04T04:56:28;8.30;99.90
10431;DHT22;5262;59.958;17.726;2023-06-04T04:58:54;8.40;99.90
10431;DHT22;5262;59.958;17.726;2023-06-04T05:01:20;8.50;99.90
10431;DHT22;5262;59.958;17.726;2023-06-04T05:03:46;8.50;99.90
10431;DHT22;5262;59.958;17.726;2023-06-04T05:06:12;8.60;99.90
10431;DHT22;5262;59.958;17.726;2023-06-04T05:08:38;8.60;99.90
10431;DHT22;5262;59.958;17.726;2023-06-04T05:11:03;8.60;99.90
10431;DHT22;5262;59.958;17.726;2023-06-04T05:13:29;8.70;99.90
10431;DHT22;5262;59.958;17.726;2023-06-04T05:15:54;8.70;99.90
10431;DHT22;5262;59.958;17.726;2023-06-04T05:18:20;8.70;99.90
10431;DHT22;5262;59.958;17.726;2023-06-04T05:20:47;8.80;99.90
10431;DHT22;5262;59.958;17.726;2023-06-04T05:23:13;8.90;99.90
10431;DHT22;5262;59.958;17.726;2023-06-04T05:25:39;9.00;99.90
10431;DHT22;5262;59.958;17.726;2023-06-04T05:28:06;9.10;99.90
10431;DHT22;5262;59.958;17.726;2023-06-04T05:30:33;9.30;99.90
10431;DHT22;5262;59.958;17.726;2023-06-04T05:32:59;9.30;99.90
10431;DHT22;5262;59.958;17.726;2023-06-04T05:35:25;9.50;99.90
10431;DHT22;5262;59.958;17.726;2023-06-04T05:37:50;9.70;99.90
10431;DHT22;5262;59.958;17.726;2023-06-04T05:40:20;9.70;99.90
10431;DHT22;5262;59.958;17.726;2023-06-04T05:42:47;9.90;99.90
10431;DHT22;5262;59.958;17.726;2023-06-04T05:45:13;10.00;99.90
10431;DHT22;5262;59.958;17.726;2023-06-04T05:47:38;10.10;99.90
10431;DHT22;5262;59.958;17.726;2023-06-04T05:50:04;10.30;99.90
10431;DHT22;5262;59.958;17.726;2023-06-04T05:52:32;10.50;99.90
10431;DHT22;5262;59.958;17.726;2023-06-04T05:54:58;10.60;99.90
10431;DHT22;5262;59.958;17.726;2023-06-04T05:57:23;10.70;99.90
10431;DHT22;5262;59.958;17.726;2023-06-04T05:59:49;10.70;99.90
10431;DHT22;5262;59.958;17.726;2023-06-04T06:02:15;10.90;99.90
10431;DHT22;5262;59.958;17.726;2023-06-04T06:04:40;11.10;99.90
10431;DHT22;5262;59.958;17.726;2023-06-04T06:07:06;11.10;99.90
10431;DHT22;5262;59.958;17.726;2023-06-04T06:09:32;11.30;99.90
10431;DHT22;5262;59.958;17.726;2023-06-04T06:11:57;11.70;99.90
10431;DHT22;5262;59.958;17.726;2023-06-04T06:14:23;11.80;99.90
10431;DHT22;5262;59.958;17.726;2023-06-04T06:16:49;11.60;99.90
10431;DHT22;5262;59.958;17.726;2023-06-04T06:19:15;11.90;99.90
10431;DHT22;5262;59.958;17.726;2023-06-04T06:21:42;12.10;99.90
10431;DHT22;5262;59.958;17.726;2023-06-04T06:24:07;12.40;99.50
10431;DHT22;5262;59.958;17.726;2023-06-04T06:26:33;12.60;99.90
10431;DHT22;5262;59.958;17.726;2023-06-04T06:28:59;13.10;99.90
10431;DHT22;5262;59.958;17.726;2023-06-04T06:31:25;13.70;99.60
10431;DHT22;5262;59.958;17.726;2023-06-04T06:33:51;13.90;99.50
10431;DHT22;5262;59.958;17.726;2023-06-04T06:36:17;14.50;97.30
10431;DHT22;5262;59.958;17.726;2023-06-04T06:38:44;15.50;96.10
10431;DHT22;5262;59.958;17.726;2023-06-04T06:41:13;15.90;93.10
10431;DHT22;5262;59.958;17.726;2023-06-04T06:43:38;15.10;91.80
10431;DHT22;5262;59.958;17.726;2023-06-04T06:46:04;14.70;91.60
10431;DHT22;5262;59.958;17.726;2023-06-04T06:48:30;14.30;93.60
10431;DHT22;5262;59.958;17.726;2023-06-04T06:50:55;14.50;93.40
10431;DHT22;5262;59.958;17.726;2023-06-04T06:53:21;13.90;92.10
10431;DHT22;5262;59.958;17.726;2023-06-04T06:55:47;13.70;94.40
10431;DHT22;5262;59.958;17.726;2023-06-04T06:58:13;14.80;93.10
10431;DHT22;5262;59.958;17.726;2023-06-04T07:00:38;14.70;92.10
10431;DHT22;5262;59.958;17.726;2023-06-04T07:03:04;14.50;91.50
10431;DHT22;5262;59.958;17.726;2023-06-04T07:05:30;14.30;93.70
10431;DHT22;5262;59.958;17.726;2023-06-04T07:07:56;14.30;93.50
10431;DHT22;5262;59.958;17.726;2023-06-04T07:10:23;14.00;93.00
10431;DHT22;5262;59.958;17.726;2023-06-04T07:12:49;13.70;92.40
10431;DHT22;5262;59.958;17.726;2023-06-04T07:15:15;14.60;92.90
10431;DHT22;5262;59.958;17.726;2023-06-04T07:17:41;14.40;92.10
10431;DHT22;5262;59.958;17.726;2023-06-04T07:20:07;14.30;91.40
10431;DHT22;5262;59.958;17.726;2023-06-04T07:22:34;14.00;91.90
10431;DHT22;5262;59.958;17.726;2023-06-04T07:25:00;13.80;92.10
10431;DHT22;5262;59.958;17.726;2023-06-04T07:27:26;13.60;92.80
10431;DHT22;5262;59.958;17.726;2023-06-04T07:29:52;12.90;92.40
10431;DHT22;5262;59.958;17.726;2023-06-04T07:32:18;12.80;93.10
10431;DHT22;5262;59.958;17.726;2023-06-04T07:34:43;13.30;94.40
10431;DHT22;5262;59.958;17.726;2023-06-04T07:37:09;13.40;92.60
10431;DHT22;5262;59.958;17.726;2023-06-04T07:39:35;13.40;92.20
10431;DHT22;5262;59.958;17.726;2023-06-04T07:42:01;13.10;93.30
10431;DHT22;5262;59.958;17.726;2023-06-04T07:44:27;13.00;93.20
10431;DHT22;5262;59.958;17.726;2023-06-04T07:46:52;12.70;92.20
10431;DHT22;5262;59.958;17.726;2023-06-04T07:49:18;12.60;93.80
10431;DHT22;5262;59.958;17.726;2023-06-04T07:51:44;12.50;93.70
10431;DHT22;5262;59.958;17.726;2023-06-04T07:54:10;12.30;93.80
10431;DHT22;5262;59.958;17.726;2023-06-04T07:56:35;12.30;92.90
10431;DHT22;5262;59.958;17.726;2023-06-04T07:59:01;12.20;92.90
10431;DHT22;5262;59.958;17.726;2023-06-04T08:01:27;12.10;94.10
10431;DHT22;5262;59.958;17.726;2023-06-04T08:03:52;12.20;93.20
10431;DHT22;5262;59.958;17.726;2023-06-04T08:06:18;12.60;94.20
10431;DHT22;5262;59.958;17.726;2023-06-04T08:08:45;12.80;93.50
10431;DHT22;5262;59.958;17.726;2023-06-04T08:11:14;12.80;92.90
10431;DHT22;5262;59.958;17.726;2023-06-04T08:13:40;12.80;92.50
10431;DHT22;5262;59.958;17.726;2023-06-04T08:16:06;12.70;92.60
10431;DHT22;5262;59.958;17.726;2023-06-04T08:18:38;12.90;92.60
10431;DHT22;5262;59.958;17.726;2023-06-04T08:21:04;13.10;92.70
10431;DHT22;5262;59.958;17.726;2023-06-04T08:23:29;13.10;93.30
10431;DHT22;5262;59.958;17.726;2023-06-04T08:25:55;13.40;94.10
10431;DHT22;5262;59.958;17.726;2023-06-04T08:28:21;13.30;91.80
10431;DHT22;5262;59.958;17.726;2023-06-04T08:30:47;13.20;91.80
10431;DHT22;5262;59.958;17.726;2023-06-04T08:33:13;13.30;93.20
10431;DHT22;5262;59.958;17.726;2023-06-04T08:35:38;13.20;91.90
10431;DHT22;5262;59.958;17.726;2023-06-04T08:38:04;13.30;91.90
10431;DHT22;5262;59.958;17.726;2023-06-04T08:40:29;13.40;91.80
10431;DHT22;5262;59.958;17.726;2023-06-04T08:42:56;15.60;90.60
10431;DHT22;5262;59.958;17.726;2023-06-04T08:45:24;17.90;87.40
10431;DHT22;5262;59.958;17.726;2023-06-04T08:47:51;19.80;79.10
10431;DHT22;5262;59.958;17.726;2023-06-04T08:50:19;18.90;70.50
10431;DHT22;5262;59.958;17.726;2023-06-04T08:52:45;17.90;75.30
10431;DHT22;5262;59.958;17.726;2023-06-04T08:55:12;16.50;73.80
10431;DHT22;5262;59.958;17.726;2023-06-04T08:57:39;16.10;77.40
10431;DHT22;5262;59.958;17.726;2023-06-04T09:00:06;15.20;82.00
10431;DHT22;5262;59.958;17.726;2023-06-04T09:02:35;15.10;80.20
10431;DHT22;5262;59.958;17.726;2023-06-04T09:05:04;14.90;82.60
10431;DHT22;5262;59.958;17.726;2023-06-04T09:07:30;14.70;81.70
10431;DHT22;5262;59.958;17.726;2023-06-04T09:09:58;14.90;83.10
10431;DHT22;5262;59.958;17.726;2023-06-04T09:12:24;15.50;82.30
10431;DHT22;5262;59.958;17.726;2023-06-04T09:14:51;16.00;77.60
10431;DHT22;5262;59.958;17.726;2023-06-04T09:17:23;16.10;77.30
10431;DHT22;5262;59.958;17.726;2023-06-04T09:19:50;16.30;77.20
10431;DHT22;5262;59.958;17.726;2023-06-04T09:22:16;16.40;81.30
10431;DHT22;5262;59.958;17.726;2023-06-04T09:24:47;15.90;75.70
10431;DHT22;5262;59.958;17.726;2023-06-04T09:27:20;15.80;78.50
10431;DHT22;5262;59.958;17.726;2023-06-04T09:29:52;15.20;77.70
10431;DHT22;5262;59.958;17.726;2023-06-04T09:34:47;16.30;81.30
10431;DHT22;5262;59.958;17.726;2023-06-04T09:37:16;17.70;77.70
10431;DHT22;5262;59.958;17.726;2023-06-04T09:39:55;18.20;72.80
10431;DHT22;5262;59.958;17.726;2023-06-04T09:42:24;17.60;70.90
10431;DHT22;5262;59.958;17.726;2023-06-04T09:44:49;17.50;71.70
10431;DHT22;5262;59.958;17.726;2023-06-04T09:47:15;17.10;74.80
10431;DHT22;5262;59.958;17.726;2023-06-04T09:52:07;16.70;75.50
10431;DHT22;5262;59.958;17.726;2023-06-04T09:54:37;16.60;70.60
10431;DHT22;5262;59.958;17.726;2023-06-04T09:57:19;16.60;72.30
10431;DHT22;5262;59.958;17.726;2023-06-04T09:59:46;16.00;70.00
10431;DHT22;5262;59.958;17.726;2023-06-04T10:02:19;15.90;74.30
10431;DHT22;5262;59.958;17.726;2023-06-04T10:04:49;17.20;76.10
10431;DHT22;5262;59.958;17.726;2023-06-04T10:07:18;17.10;69.40
10431;DHT22;5262;59.958;17.726;2023-06-04T10:09:44;17.30;68.10
10431;DHT22;5262;59.958;17.726;2023-06-04T10:12:16;17.50;68.10
10431;DHT22;5262;59.958;17.726;2023-06-04T10:14:51;17.50;66.10
10431;DHT22;5262;59.958;17.726;2023-06-04T10:17:20;18.20;70.40
10431;DHT22;5262;59.958;17.726;2023-06-04T10:19:48;18.60;67.30
10431;DHT22;5262;59.958;17.726;2023-06-04T10:22:14;18.30;61.50
10431;DHT22;5262;59.958;17.726;2023-06-04T10:24:40;17.90;61.30
10431;DHT22;5262;59.958;17.726;2023-06-04T10:27:06;17.90;64.70
10431;DHT22;5262;59.958;17.726;2023-06-04T10:29:36;17.90;64.90
10431;DHT22;5262;59.958;17.726;2023-06-04T10:32:02;18.70;65.40
10431;DHT22;5262;59.958;17.726;2023-06-04T10:34:28;20.30;64.00
10431;DHT22;5262;59.958;17.726;2023-06-04T10:36:55;20.70;56.70
10431;DHT22;5262;59.958;17.726;2023-06-04T10:39:28;21.60;58.70
10431;DHT22;5262;59.958;17.726;2023-06-04T10:42:04;21.50;58.90
10431;DHT22;5262;59.958;17.726;2023-06-04T10:44:32;21.00;55.70
10431;DHT22;5262;59.958;17.726;2023-06-04T10:46:58;20.60;55.40
10431;DHT22;5262;59.958;17.726;2023-06-04T10:49:28;19.40;57.30
10431;DHT22;5262;59.958;17.726;2023-06-04T10:51:54;19.30;59.40
10431;DHT22;5262;59.958;17.726;2023-06-04T10:54:28;19.10;59.70
10431;DHT22;5262;59.958;17.726;2023-06-04T10:56:54;18.80;60.90
10431;DHT22;5262;59.958;17.726;2023-06-04T10:59:20;17.80;58.80
10431;DHT22;5262;59.958;17.726;2023-06-04T11:01:46;17.50;62.60
10431;DHT22;5262;59.958;17.726;2023-06-04T11:04:25;17.60;62.40
10431;DHT22;5262;59.958;17.726;2023-06-04T11:07:04;17.60;62.90
10431;DHT22;5262;59.958;17.726;2023-06-04T11:09:37;18.60;64.40
10431;DHT22;5262;59.958;17.726;2023-06-04T11:12:07;19.10;60.20
10431;DHT22;5262;59.958;17.726;2023-06-04T11:14:32;18.60;62.70
10431;DHT22;5262;59.958;17.726;2023-06-04T11:17:11;18.20;59.30
10431;DHT22;5262;59.958;17.726;2023-06-04T11:19:38;18.10;60.30
10431;DHT22;5262;59.958;17.726;2023-06-04T11:22:05;18.30;59.70
10431;DHT22;5262;59.958;17.726;2023-06-04T11:24:32;18.70;57.20
10431;DHT22;5262;59.958;17.726;2023-06-04T11:26:58;18.70;59.90
10431;DHT22;5262;59.958;17.726;2023-06-04T11:29:28;19.30;57.40
10431;DHT22;5262;59.958;17.726;2023-06-04T11:31:54;19.30;57.10
10431;DHT22;5262;59.958;17.726;2023-06-04T11:34:27;18.90;57.00
10431;DHT22;5262;59.958;17.726;2023-06-04T11:36:53;18.70;57.40
10431;DHT22;5262;59.958;17.726;2023-06-04T11:39:20;19.30;59.90
10431;DHT22;5262;59.958;17.726;2023-06-04T11:41:46;18.70;58.30
10431;DHT22;5262;59.958;17.726;2023-06-04T11:44:12;19.00;61.30
10431;DHT22;5262;59.958;17.726;2023-06-04T11:46:42;18.30;56.30
10431;DHT22;5262;59.958;17.726;2023-06-04T11:49:13;18.50;60.50
10431;DHT22;5262;59.958;17.726;2023-06-04T11:51:49;18.50;61.50
10431;DHT22;5262;59.958;17.726;2023-06-04T11:54:19;18.30;58.60
10431;DHT22;5262;59.958;17.726;2023-06-04T11:56:48;18.40;59.90
10431;DHT22;5262;59.958;17.726;2023-06-04T11:59:15;19.30;60.30
10431;DHT22;5262;59.958;17.726;2023-06-04T12:01:42;19.00;56.60
10431;DHT22;5262;59.958;17.726;2023-06-04T12:04:18;18.70;60.80
10431;DHT22;5262;59.958;17.726;2023-06-04T12:06:54;18.50;59.90
10431;DHT22;5262;59.958;17.726;2023-06-04T12:09:28;18.60;61.40
10431;DHT22;5262;59.958;17.726;2023-06-04T12:12:02;18.40;59.20
10431;DHT22;5262;59.958;17.726;2023-06-04T12:14:28;18.40;59.50
10431;DHT22;5262;59.958;17.726;2023-06-04T12:16:59;19.20;57.30
10431;DHT22;5262;59.958;17.726;2023-06-04T12:19:25;19.40;55.20
10431;DHT22;5262;59.958;17.726;2023-06-04T12:22:07;19.10;56.60
10431;DHT22;5262;59.958;17.726;2023-06-04T12:24:34;18.80;57.30
10431;DHT22;5262;59.958;17.726;2023-06-04T12:27:10;18.40;55.90
10431;DHT22;5262;59.958;17.726;2023-06-04T12:29:37;18.20;60.60
10431;DHT22;5262;59.958;17.726;2023-06-04T12:32:10;18.40;61.60
10431;DHT22;5262;59.958;17.726;2023-06-04T12:34:40;18.70;58.60
10431;DHT22;5262;59.958;17.726;2023-06-04T12:37:06;18.20;59.30
10431;DHT22;5262;59.958;17.726;2023-06-04T12:39:34;18.70;60.40
10431;DHT22;5262;59.958;17.726;2023-06-04T12:42:05;18.60;58.00
10431;DHT22;5262;59.958;17.726;2023-06-04T12:44:32;18.30;58.40
10431;DHT22;5262;59.958;17.726;2023-06-04T12:46:58;18.70;59.10
10431;DHT22;5262;59.958;17.726;2023-06-04T12:49:23;19.30;57.70
10431;DHT22;5262;59.958;17.726;2023-06-04T12:51:49;19.30;57.60
10431;DHT22;5262;59.958;17.726;2023-06-04T12:54:14;18.60;56.20
10431;DHT22;5262;59.958;17.726;2023-06-04T12:56:40;17.90;58.40
10431;DHT22;5262;59.958;17.726;2023-06-04T12:59:06;18.00;60.70
10431;DHT22;5262;59.958;17.726;2023-06-04T13:01:32;18.40;59.70
10431;DHT22;5262;59.958;17.726;2023-06-04T13:03:58;18.80;60.10
10431;DHT22;5262;59.958;17.726;2023-06-04T13:06:24;18.80;62.10
10431;DHT22;5262;59.958;17.726;2023-06-04T13:08:49;19.80;59.30
10431;DHT22;5262;59.958;17.726;2023-06-04T13:11:15;19.80;57.40
10431;DHT22;5262;59.958;17.726;2023-06-04T13:13:41;18.80;58.30
10431;DHT22;5262;59.958;17.726;2023-06-04T13:16:07;18.80;56.70
10431;DHT22;5262;59.958;17.726;2023-06-04T13:18:33;18.70;57.50
10431;DHT22;5262;59.958;17.726;2023-06-04T13:20:58;18.40;54.80
10431;DHT22;5262;59.958;17.726;2023-06-04T13:23:24;17.90;58.80
10431;DHT22;5262;59.958;17.726;2023-06-04T13:25:49;18.00;59.60
10431;DHT22;5262;59.958;17.726;2023-06-04T13:28:16;18.20;60.20
10431;DHT22;5262;59.958;17.726;2023-06-04T13:30:43;18.30;59.10
10431;DHT22;5262;59.958;17.726;2023-06-04T13:33:09;18.60;60.30
10431;DHT22;5262;59.958;17.726;2023-06-04T13:35:35;18.90;58.10
10431;DHT22;5262;59.958;17.726;2023-06-04T13:38:03;18.90;56.00
10431;DHT22;5262;59.958;17.726;2023-06-04T13:40:29;18.50;59.00
10431;DHT22;5262;59.958;17.726;2023-06-04T13:42:55;19.00;57.10
10431;DHT22;5262;59.958;17.726;2023-06-04T13:45:21;18.00;56.10
10431;DHT22;5262;59.958;17.726;2023-06-04T13:47:49;17.80;56.80
10431;DHT22;5262;59.958;17.726;2023-06-04T13:50:15;18.10;57.80
10431;DHT22;5262;59.958;17.726;2023-06-04T13:52:41;17.80;57.10
10431;DHT22;5262;59.958;17.726;2023-06-04T13:55:07;17.40;58.40
10431;DHT22;5262;59.958;17.726;2023-06-04T13:57:33;17.30;57.50
10431;DHT22;5262;59.958;17.726;2023-06-04T13:59:59;17.30;59.20
10431;DHT22;5262;59.958;17.726;2023-06-04T14:02:25;17.40;61.60
10431;DHT22;5262;59.958;17.726;2023-06-04T14:04:53;17.90;59.40
10431;DHT22;5262;59.958;17.726;2023-06-04T14:07:19;18.40;57.70
10431;DHT22;5262;59.958;17.726;2023-06-04T14:09:44;18.70;58.20
10431;DHT22;5262;59.958;17.726;2023-06-04T14:12:10;19.00;53.80
10431;DHT22;5262;59.958;17.726;2023-06-04T14:14:36;18.90;53.70
10431;DHT22;5262;59.958;17.726;2023-06-04T14:17:03;19.10;52.70
10431;DHT22;5262;59.958;17.726;2023-06-04T14:19:29;18.90;54.20
10431;DHT22;5262;59.958;17.726;2023-06-04T14:21:55;19.20;54.00
10431;DHT22;5262;59.958;17.726;2023-06-04T14:24:21;19.10;55.90
10431;DHT22;5262;59.958;17.726;2023-06-04T14:26:46;19.10;52.80
10431;DHT22;5262;59.958;17.726;2023-06-04T14:29:12;18.80;55.60
10431;DHT22;5262;59.958;17.726;2023-06-04T14:31:39;18.50;56.10
10431;DHT22;5262;59.958;17.726;2023-06-04T14:34:04;18.00;54.40
10431;DHT22;5262;59.958;17.726;2023-06-04T14:36:32;17.70;55.50
10431;DHT22;5262;59.958;17.726;2023-06-04T14:38:58;17.60;57.00
10431;DHT22;5262;59.958;17.726;2023-06-04T14:41:23;17.60;57.80
10431;DHT22;5262;59.958;17.726;2023-06-04T14:43:49;17.90;56.10
10431;DHT22;5262;59.958;17.726;2023-06-04T14:46:16;18.00;56.00
10431;DHT22;5262;59.958;17.726;2023-06-04T14:48:42;18.00;56.30
10431;DHT22;5262;59.958;17.726;2023-06-04T14:51:07;18.40;56.00
10431;DHT22;5262;59.958;17.726;2023-06-04T14:53:33;18.50;54.40
10431;DHT22;5262;59.958;17.726;2023-06-04T14:55:59;18.60;54.70
10431;DHT22;5262;59.958;17.726;2023-06-04T14:58:24;18.60;55.10
10431;DHT22;5262;59.958;17.726;2023-06-04T15:00:50;18.40;54.30
10431;DHT22;5262;59.958;17.726;2023-06-04T15:03:15;18.40;51.70
10431;DHT22;5262;59.958;17.726;2023-06-04T15:05:42;18.40;52.00
10431;DHT22;5262;59.958;17.726;2023-06-04T15:08:07;18.70;51.40
10431;DHT22;5262;59.958;17.726;2023-06-04T15:10:33;18.70;55.80
10431;DHT22;5262;59.958;17.726;2023-06-04T15:12:59;18.50;54.10
10431;DHT22;5262;59.958;17.726;2023-06-04T15:15:25;18.20;52.50
10431;DHT22;5262;59.958;17.726;2023-06-04T15:17:51;18.10;54.40
10431;DHT22;5262;59.958;17.726;2023-06-04T15:20:17;18.10;54.90
10431;DHT22;5262;59.958;17.726;2023-06-04T15:22:43;18.40;53.20
10431;DHT22;5262;59.958;17.726;2023-06-04T15:25:09;18.50;53.80
10431;DHT22;5262;59.958;17.726;2023-06-04T15:27:35;18.50;53.60
10431;DHT22;5262;59.958;17.726;2023-06-04T15:30:01;18.50;53.00
10431;DHT22;5262;59.958;17.726;2023-06-04T15:32:27;18.50;53.30
10431;DHT22;5262;59.958;17.726;2023-06-04T15:34:53;18.40;54.10
10431;DHT22;5262;59.958;17.726;2023-06-04T15:37:18;18.50;53.80
10431;DHT22;5262;59.958;17.726;2023-06-04T15:39:44;18.60;52.90
10431;DHT22;5262;59.958;17.726;2023-06-04T15:42:09;18.70;53.80
10431;DHT22;5262;59.958;17.726;2023-06-04T15:44:37;18.60;54.10
10431;DHT22;5262;59.958;17.726;2023-06-04T15:47:03;18.70;53.30